createdAt,value
2023-04-24T00:01:02.701Z,5.70
2023-04-24T00:03:30.623Z,5.50
2023-04-24T00:05:59.413Z,4.80
2023-04-24T00:08:26.910Z,9.20
2023-04-24T00:10:53.840Z,7.00
2023-04-24T00:13:20.630Z,6.90
2023-04-24T00:15:48.044Z,5.90
2023-04-24T00:18:14.915Z,4.90
2023-04-24T00:20:41.804Z,4.90
2023-04-24T00:23:08.507Z,3.70
2023-04-24T00:25:35.261Z,6.20
2023-04-24T00:28:02.652Z,3.90
2023-04-24T00:30:29.601Z,6.50
2023-04-24T00:32:57.372Z,5.90
2023-04-24T00:35:24.315Z,8.50
2023-04-24T00:37:51.200Z,5.10
2023-04-24T00:40:17.954Z,5.00
2023-04-24T00:42:45.448Z,4.20
2023-04-24T00:45:12.648Z,5.00
2023-04-24T00:47:39.358Z,5.80
2023-04-24T00:50:07.303Z,4.90
2023-04-24T00:52:35.144Z,4.40
2023-04-24T00:55:01.852Z,5.90
2023-04-24T00:57:29.023Z,5.60
2023-04-24T00:59:55.692Z,6.10
2023-04-24T01:02:23.600Z,4.60
2023-04-24T01:04:53.508Z,5.10
2023-04-24T01:07:21.234Z,5.80
2023-04-24T01:09:49.318Z,5.80
2023-04-24T01:12:16.029Z,5.60
2023-04-24T01:14:44.651Z,5.80
2023-04-24T01:17:11.368Z,7.90
2023-04-24T01:19:38.863Z,4.10
2023-04-24T01:22:13.285Z,6.60
2023-04-24T01:24:40.285Z,5.30
2023-04-24T01:27:07.672Z,4.70
2023-04-24T01:29:34.902Z,4.10
2023-04-24T01:32:03.606Z,5.20
2023-04-24T01:34:30.977Z,5.40
2023-04-24T01:36:57.679Z,5.00
2023-04-24T01:39:26.072Z,6.40
2023-04-24T01:41:55.132Z,4.70
2023-04-24T01:44:21.927Z,5.10
2023-04-24T01:46:48.702Z,4.70
2023-04-24T01:49:15.984Z,9.20
2023-04-24T01:51:42.636Z,7.00
2023-04-24T01:54:09.311Z,5.80
2023-04-24T01:56:36.630Z,4.90
2023-04-24T01:59:04.337Z,4.60
2023-04-24T02:01:36.458Z,5.40
2023-04-24T02:04:03.955Z,5.40
2023-04-24T02:06:31.714Z,5.90
2023-04-24T02:09:01.245Z,6.30
2023-04-24T02:11:28.602Z,5.40
2023-04-24T02:13:55.539Z,3.60
2023-04-24T02:16:22.269Z,4.00
2023-04-24T02:18:49.149Z,4.60
2023-04-24T02:21:16.063Z,4.10
2023-04-24T02:23:42.745Z,4.40
2023-04-24T02:26:10.713Z,6.10
2023-04-24T02:28:37.439Z,6.40
2023-04-24T02:31:04.096Z,4.80
2023-04-24T02:33:31.382Z,4.60
2023-04-24T02:35:58.227Z,7.60
2023-04-24T02:38:25.394Z,10.10
2023-04-24T02:40:52.587Z,8.60
2023-04-24T02:43:19.810Z,6.50
2023-04-24T02:45:46.652Z,9.40
2023-04-24T02:48:13.414Z,9.20
2023-04-24T02:50:40.091Z,8.00
2023-04-24T02:53:06.782Z,7.60
2023-04-24T02:55:33.510Z,6.90
2023-04-24T02:58:00.469Z,6.90
2023-04-24T03:00:27.258Z,7.10
2023-04-24T03:02:54.145Z,8.10
2023-04-24T03:05:21.201Z,9.30
2023-04-24T03:07:47.942Z,8.20
2023-04-24T03:10:14.765Z,6.90
2023-04-24T03:12:42.648Z,6.10
2023-04-24T03:15:09.716Z,7.10
2023-04-24T03:17:38.384Z,7.90
2023-04-24T03:20:06.736Z,5.50
2023-04-24T03:22:35.011Z,7.40
2023-04-24T03:25:02.442Z,8.00
2023-04-24T03:27:29.531Z,9.20
2023-04-24T03:30:01.201Z,6.00
2023-04-24T03:32:34.879Z,6.60
2023-04-24T03:35:01.845Z,6.20
2023-04-24T03:37:28.977Z,8.40
2023-04-24T03:40:09.752Z,6.60
2023-04-24T03:42:39.129Z,7.30
2023-04-24T03:45:07.376Z,6.60
2023-04-24T03:47:35.322Z,7.30
2023-04-24T03:50:02.361Z,6.80
2023-04-24T03:52:30.086Z,6.40
2023-04-24T03:54:56.779Z,6.80
2023-04-24T03:57:24.494Z,6.90
2023-04-24T04:00:06.760Z,6.40
2023-04-24T04:02:41.814Z,6.20
2023-04-24T04:05:09.809Z,6.60
2023-04-24T04:07:37.039Z,5.20
2023-04-24T04:10:04.567Z,5.40
2023-04-24T04:12:31.475Z,6.50
2023-04-24T04:14:58.607Z,8.10
2023-04-24T04:17:25.561Z,6.30
2023-04-24T04:19:52.682Z,5.40
2023-04-24T04:22:19.275Z,6.00
2023-04-24T04:24:51.389Z,7.30
2023-04-24T04:27:21.631Z,6.60
2023-04-24T04:29:53.922Z,7.20
2023-04-24T04:32:22.042Z,5.80
2023-04-24T04:34:49.841Z,7.90
2023-04-24T04:37:17.676Z,7.70
2023-04-24T04:40:07.141Z,9.20
2023-04-24T04:42:40.671Z,7.60
2023-04-24T04:45:12.013Z,7.50
2023-04-24T04:47:49.163Z,9.50
2023-04-24T04:50:17.086Z,6.20
2023-04-24T04:52:43.753Z,5.10
2023-04-24T04:55:24.632Z,7.40
2023-04-24T04:58:07.998Z,9.80
2023-04-24T05:00:37.949Z,6.40
2023-04-24T05:03:20.740Z,9.10
2023-04-24T05:05:52.915Z,11.20
2023-04-24T05:08:27.134Z,14.50
2023-04-24T05:10:55.750Z,10.50
2023-04-24T05:13:35.642Z,9.30
2023-04-24T05:16:10.415Z,9.70
2023-04-24T05:18:37.297Z,8.20
2023-04-24T05:21:04.936Z,8.00
2023-04-24T05:23:32.544Z,7.20
2023-04-24T05:25:59.447Z,8.80
2023-04-24T05:28:29.118Z,11.20
2023-04-24T05:31:04.032Z,9.10
2023-04-24T05:33:31.883Z,8.10
2023-04-24T05:35:58.619Z,11.80
2023-04-24T05:38:25.701Z,14.00
2023-04-24T05:40:53.307Z,10.90
2023-04-24T05:43:20.328Z,9.50
2023-04-24T05:45:48.298Z,9.40
2023-04-24T05:48:15.341Z,11.00
2023-04-24T05:50:42.307Z,8.80
2023-04-24T05:53:11.079Z,10.10
2023-04-24T05:55:38.414Z,14.00
2023-04-24T05:58:05.202Z,11.70
2023-04-24T06:00:35.904Z,14.30
2023-04-24T06:03:05.328Z,9.30
2023-04-24T06:05:32.599Z,10.90
2023-04-24T06:07:59.736Z,9.90
2023-04-24T06:10:30.543Z,8.80
2023-04-24T06:13:00.783Z,9.40
2023-04-24T06:15:30.724Z,7.80
2023-04-24T06:18:01.169Z,8.40
2023-04-24T06:20:28.109Z,7.20
2023-04-24T06:22:54.870Z,9.00
2023-04-24T06:25:21.547Z,7.10
2023-04-24T06:27:48.285Z,7.50
2023-04-24T06:30:15.139Z,6.00
2023-04-24T06:32:42.613Z,6.60
2023-04-24T06:35:10.392Z,5.60
2023-04-24T06:37:37.285Z,6.50
2023-04-24T06:40:05.615Z,9.50
2023-04-24T06:42:35.462Z,5.10
2023-04-24T06:45:03.717Z,6.50
2023-04-24T06:47:30.552Z,6.20
2023-04-24T06:49:57.697Z,6.00
2023-04-24T06:52:24.546Z,9.10
2023-04-24T06:54:51.228Z,5.50
2023-04-24T06:57:18.676Z,6.30
2023-04-24T06:59:45.557Z,6.10
2023-04-24T07:02:12.628Z,4.30
2023-04-24T07:04:40.468Z,5.00
2023-04-24T07:07:13.396Z,5.80
2023-04-24T07:12:14.064Z,5.10
2023-04-24T07:14:41.210Z,5.60
2023-04-24T07:17:08.708Z,3.60
2023-04-24T07:19:38.371Z,3.80
2023-04-24T07:22:05.038Z,4.90
2023-04-24T07:24:34.654Z,7.60
2023-04-24T07:27:03.982Z,4.30
2023-04-24T07:29:30.714Z,3.60
2023-04-24T07:31:57.628Z,4.70
2023-04-24T07:34:24.582Z,4.80
2023-04-24T07:36:51.466Z,5.10
2023-04-24T07:39:18.777Z,5.50
2023-04-24T07:41:45.417Z,3.90
2023-04-24T07:44:12.231Z,3.80
2023-04-24T07:46:39.004Z,3.50
2023-04-24T07:49:13.262Z,4.20
2023-04-24T07:51:41.768Z,6.50
2023-04-24T07:54:08.610Z,4.70
2023-04-24T07:56:39.165Z,2.80
2023-04-24T07:59:06.670Z,4.40
2023-04-24T08:01:34.070Z,3.10
2023-04-24T08:04:01.236Z,6.50
2023-04-24T08:06:30.878Z,3.80
2023-04-24T08:08:58.309Z,6.40
2023-04-24T08:11:25.503Z,3.30
2023-04-24T08:13:52.393Z,4.10
2023-04-24T08:16:19.251Z,3.30
2023-04-24T08:18:45.977Z,5.70
2023-04-24T08:21:17.514Z,3.20
2023-04-24T08:23:44.533Z,4.60
2023-04-24T08:26:11.806Z,4.90
2023-04-24T08:28:38.872Z,4.70
2023-04-24T08:31:05.709Z,4.00
2023-04-24T08:33:34.816Z,3.50
2023-04-24T08:36:05.852Z,3.10
2023-04-24T08:38:33.422Z,2.90
2023-04-24T08:41:01.393Z,3.40
2023-04-24T08:43:28.686Z,2.80
2023-04-24T08:45:57.283Z,4.50
2023-04-24T08:48:30.884Z,2.80
2023-04-24T08:50:59.235Z,2.90
2023-04-24T08:53:26.825Z,3.10
2023-04-24T08:55:54.918Z,3.50
2023-04-24T08:58:22.650Z,3.10
2023-04-24T09:00:49.569Z,3.30
2023-04-24T09:03:18.139Z,2.80
2023-04-24T09:05:46.410Z,4.20
2023-04-24T09:08:19.782Z,2.60
2023-04-24T09:10:49.072Z,4.00
2023-04-24T09:13:18.767Z,2.40
2023-04-24T09:15:45.684Z,5.40
2023-04-24T09:18:12.466Z,2.70
2023-04-24T09:21:03.866Z,4.70
2023-04-24T09:23:31.800Z,3.30
2023-04-24T09:26:00.517Z,3.40
2023-04-24T09:28:33.619Z,2.90
2023-04-24T09:31:10.835Z,3.90
2023-04-24T09:33:37.856Z,5.50
2023-04-24T09:36:05.019Z,5.00
2023-04-24T09:38:33.324Z,6.60
2023-04-24T09:41:04.316Z,6.20
2023-04-24T09:43:31.790Z,3.20
2023-04-24T09:45:59.602Z,5.70
2023-04-24T09:48:38.700Z,3.10
2023-04-24T09:51:07.611Z,2.80
2023-04-24T09:53:34.523Z,5.20
2023-04-24T09:56:09.053Z,3.30
2023-04-24T09:58:37.004Z,3.20
2023-04-24T10:01:04.267Z,4.30
2023-04-24T10:03:32.230Z,4.90
2023-04-24T10:06:00.231Z,4.90
2023-04-24T10:08:27.273Z,5.00
2023-04-24T10:10:54.118Z,4.80
2023-04-24T10:13:21.183Z,4.20
2023-04-24T10:15:47.911Z,3.20
2023-04-24T10:18:15.188Z,3.10
2023-04-24T10:20:42.435Z,3.40
2023-04-24T10:23:10.982Z,5.10
2023-04-24T10:25:38.081Z,2.90
2023-04-24T10:28:05.401Z,6.50
2023-04-24T10:30:38.161Z,3.60
2023-04-24T10:33:08.062Z,4.30
2023-04-24T10:35:38.171Z,3.60
2023-04-24T10:38:15.051Z,2.70
2023-04-24T10:40:42.530Z,4.00
2023-04-24T10:43:11.536Z,3.90
2023-04-24T10:45:39.115Z,5.40
2023-04-24T10:48:11.355Z,6.80
2023-04-24T10:50:45.184Z,4.00
2023-04-24T10:53:27.648Z,5.00
2023-04-24T10:55:58.543Z,2.40
2023-04-24T10:58:37.745Z,2.80
2023-04-24T11:01:04.682Z,4.10
2023-04-24T11:03:33.352Z,3.00
2023-04-24T11:06:02.845Z,4.10
2023-04-24T11:08:31.623Z,3.40
2023-04-24T11:11:04.334Z,3.30
2023-04-24T11:14:08.349Z,2.40
2023-04-24T11:16:39.518Z,3.50
2023-04-24T11:19:10.092Z,2.50
2023-04-24T11:21:50.402Z,6.40
2023-04-24T11:24:29.561Z,6.10
2023-04-24T11:27:04.445Z,4.60
2023-04-24T11:29:48.719Z,5.70
2023-04-24T11:32:30.663Z,4.30
2023-04-24T11:35:02.189Z,4.80
2023-04-24T11:37:39.964Z,5.50
2023-04-24T11:40:11.450Z,3.90
2023-04-24T11:42:45.107Z,4.40
2023-04-24T11:45:16.298Z,3.50
2023-04-24T11:47:43.741Z,4.30
2023-04-24T11:50:15.320Z,4.10
2023-04-24T11:52:43.851Z,3.70
2023-04-24T11:55:16.663Z,3.40
2023-04-24T11:57:45.055Z,3.20
2023-04-24T12:00:19.968Z,3.70
2023-04-24T12:02:47.253Z,3.10
2023-04-24T12:05:40.512Z,3.30
2023-04-24T12:10:35.268Z,3.50
2023-04-24T12:13:01.954Z,3.20
2023-04-24T12:15:29.275Z,4.00
2023-04-24T12:17:56.121Z,3.60
2023-04-24T12:20:28.201Z,3.60
2023-04-24T12:22:58.398Z,3.00
2023-04-24T12:25:26.484Z,4.60
2023-04-24T12:28:12.784Z,4.30
2023-04-24T12:30:48.804Z,3.30
2023-04-24T12:33:22.207Z,3.60
2023-04-24T12:35:51.876Z,5.60
2023-04-24T12:38:22.669Z,3.50
2023-04-24T12:41:05.164Z,5.00
2023-04-24T12:43:32.474Z,6.00
2023-04-24T12:45:59.609Z,6.20
2023-04-24T12:48:27.444Z,5.50
2023-04-24T12:50:54.157Z,3.90
2023-04-24T12:53:20.812Z,3.60
2023-04-24T12:55:52.839Z,4.30
2023-04-24T12:58:20.883Z,4.10
2023-04-24T13:00:47.905Z,3.90
2023-04-24T13:03:15.270Z,4.30
2023-04-24T13:05:43.182Z,3.70
2023-04-24T13:08:09.886Z,3.90
2023-04-24T13:10:37.833Z,3.20
2023-04-24T13:13:04.921Z,3.70
2023-04-24T13:15:31.986Z,2.70
2023-04-24T13:17:58.630Z,2.90
2023-04-24T13:20:25.853Z,3.70
2023-04-24T13:22:52.613Z,4.50
2023-04-24T13:25:20.863Z,3.90
2023-04-24T13:27:47.571Z,3.10
2023-04-24T13:30:14.586Z,4.70
2023-04-24T13:32:41.427Z,3.00
2023-04-24T13:35:08.893Z,2.90
2023-04-24T13:37:35.626Z,6.80
2023-04-24T13:40:06.409Z,6.10
2023-04-24T13:42:33.683Z,3.00
2023-04-24T13:45:01.001Z,2.70
2023-04-24T13:47:30.024Z,4.10
2023-04-24T13:49:56.648Z,3.00
2023-04-24T13:52:23.304Z,2.70
2023-04-24T13:54:50.027Z,2.50
2023-04-24T13:57:17.228Z,4.90
2023-04-24T13:59:43.929Z,2.60
2023-04-24T14:02:10.690Z,4.60
2023-04-24T14:04:38.078Z,3.80
2023-04-24T14:07:05.272Z,4.40
2023-04-24T14:09:32.147Z,3.60
2023-04-24T14:11:58.955Z,6.10
2023-04-24T14:14:25.734Z,4.50
2023-04-24T14:16:52.329Z,3.30
2023-04-24T14:19:18.999Z,7.60
2023-04-24T14:21:45.601Z,5.50
2023-04-24T14:24:12.282Z,4.40
2023-04-24T14:26:39.147Z,3.30
2023-04-24T14:29:14.115Z,5.30
2023-04-24T14:31:41.648Z,6.20
2023-04-24T14:34:08.636Z,3.10
2023-04-24T14:36:35.691Z,5.60
2023-04-24T14:39:06.614Z,4.80
2023-04-24T14:41:36.182Z,4.80
2023-04-24T14:44:03.536Z,3.50
2023-04-24T14:46:30.877Z,2.90
2023-04-24T14:48:58.268Z,4.30
2023-04-24T14:51:25.907Z,3.00
2023-04-24T14:53:52.863Z,3.80
2023-04-24T14:56:19.593Z,3.60
2023-04-24T14:58:46.245Z,3.90
2023-04-24T15:01:12.896Z,5.50
2023-04-24T15:03:39.700Z,4.60
2023-04-24T15:06:07.012Z,5.90
2023-04-24T15:08:33.638Z,3.30
2023-04-24T15:11:00.426Z,6.80
2023-04-24T15:13:27.099Z,5.00
2023-04-24T15:15:54.207Z,4.20
2023-04-24T15:18:21.039Z,3.30
2023-04-24T15:20:47.704Z,3.20
2023-04-24T15:23:14.324Z,4.00
2023-04-24T15:25:40.994Z,5.10
2023-04-24T15:28:07.664Z,4.30
2023-04-24T15:30:35.052Z,7.30
2023-04-24T15:33:02.269Z,6.00
2023-04-24T15:35:29.182Z,4.60
2023-04-24T15:37:55.774Z,2.90
2023-04-24T15:40:22.444Z,3.80
2023-04-24T15:42:49.301Z,3.70
2023-04-24T15:45:16.030Z,3.60
2023-04-24T15:47:44.727Z,5.60
2023-04-24T15:50:14.134Z,3.10
2023-04-24T15:52:42.009Z,5.50
2023-04-24T15:55:09.066Z,3.20
2023-04-24T15:57:35.734Z,3.40
2023-04-24T16:00:06.460Z,2.90
2023-04-24T16:02:38.891Z,4.80
2023-04-24T16:05:06.864Z,4.30
2023-04-24T16:07:34.734Z,4.60
2023-04-24T16:10:01.328Z,6.20
2023-04-24T16:12:28.888Z,3.40
2023-04-24T16:14:55.591Z,3.40
2023-04-24T16:17:22.625Z,8.70
2023-04-24T16:19:49.346Z,2.80
2023-04-24T16:22:16.104Z,3.70
2023-04-24T16:24:43.133Z,3.50
2023-04-24T16:27:10.381Z,4.10
2023-04-24T16:29:37.377Z,2.90
2023-04-24T16:32:04.055Z,3.10
2023-04-24T16:34:30.944Z,3.80
2023-04-24T16:36:57.663Z,3.10
2023-04-24T16:39:25.307Z,6.20
2023-04-24T16:41:54.087Z,5.20
2023-04-24T16:44:20.787Z,3.10
2023-04-24T16:46:47.465Z,5.50
2023-04-24T16:49:14.154Z,4.90
2023-04-24T16:51:40.786Z,4.70
2023-04-24T16:54:07.357Z,3.10
2023-04-24T16:56:34.780Z,4.30
2023-04-24T16:59:01.389Z,3.50
2023-04-24T17:01:28.243Z,2.60
2023-04-24T17:03:55.542Z,4.90
2023-04-24T17:06:22.318Z,3.40
2023-04-24T17:08:49.063Z,5.70
2023-04-24T17:11:15.818Z,3.60
2023-04-24T17:13:42.661Z,6.40
2023-04-24T17:16:09.311Z,4.60
2023-04-24T17:18:36.391Z,5.50
2023-04-24T17:21:03.109Z,4.80
2023-04-24T17:23:31.262Z,4.70
2023-04-24T17:25:57.866Z,3.70
2023-04-24T17:28:26.609Z,3.10
2023-04-24T17:30:55.007Z,3.20
2023-04-24T17:33:21.696Z,4.10
2023-04-24T17:35:49.610Z,4.70
2023-04-24T17:38:17.568Z,4.80
2023-04-24T17:40:45.653Z,3.20
2023-04-24T17:43:17.518Z,2.70
2023-04-24T17:45:45.032Z,5.10
2023-04-24T17:48:13.172Z,3.40
2023-04-24T17:50:40.067Z,2.80
2023-04-24T17:53:07.192Z,3.50
2023-04-24T17:55:34.415Z,3.70
2023-04-24T17:58:04.005Z,3.20
2023-04-24T18:00:31.726Z,3.50
2023-04-24T18:03:00.515Z,3.90
2023-04-24T18:05:28.408Z,2.60
2023-04-24T18:07:55.346Z,4.30
2023-04-24T18:10:22.686Z,3.70
2023-04-24T18:12:49.294Z,2.70
2023-04-24T18:15:16.501Z,2.90
2023-04-24T18:17:43.188Z,2.90
2023-04-24T18:20:11.353Z,7.10
2023-04-24T18:22:38.587Z,3.30
2023-04-24T18:25:05.962Z,5.00
2023-04-24T18:27:33.497Z,6.30
2023-04-24T18:30:00.221Z,5.20
2023-04-24T18:32:27.187Z,4.60
2023-04-24T18:34:53.803Z,7.20
2023-04-24T18:37:20.708Z,4.10
2023-04-24T18:39:47.382Z,4.70
2023-04-24T18:42:14.177Z,4.30
2023-04-24T18:44:42.192Z,4.80
2023-04-24T18:47:09.232Z,5.30
2023-04-24T18:49:35.966Z,4.70
2023-04-24T18:52:02.785Z,3.90
2023-04-24T18:54:29.746Z,5.60
2023-04-24T18:56:56.561Z,5.30
2023-04-24T18:59:23.298Z,5.90
2023-04-24T19:01:50.167Z,5.20
2023-04-24T19:04:17.873Z,4.60
2023-04-24T19:06:44.669Z,3.60
2023-04-24T19:09:11.448Z,5.10
2023-04-24T19:11:38.172Z,3.50
2023-04-24T19:14:05.225Z,4.30
2023-04-24T19:16:31.859Z,4.80
2023-04-24T19:18:58.775Z,5.50
2023-04-24T19:21:25.757Z,7.20
2023-04-24T19:23:52.447Z,5.70
2023-04-24T19:26:20.965Z,8.00
2023-04-24T19:28:47.807Z,4.10
2023-04-24T19:31:14.992Z,5.10
2023-04-24T19:33:41.896Z,4.30
2023-04-24T19:36:08.532Z,5.20
2023-04-24T19:38:35.562Z,9.80
2023-04-24T19:41:02.420Z,6.00
2023-04-24T19:43:29.298Z,4.00
2023-04-24T19:45:57.316Z,6.30
2023-04-24T19:48:24.007Z,5.80
2023-04-24T19:50:50.853Z,5.00
2023-04-24T19:53:18.257Z,6.70
2023-04-24T19:55:45.440Z,5.90
2023-04-24T19:58:12.029Z,6.50
2023-04-24T20:00:40.755Z,5.20
2023-04-24T20:03:08.436Z,5.20
2023-04-24T20:05:37.286Z,3.90
2023-04-24T20:08:04.164Z,5.60
2023-04-24T20:10:30.824Z,6.80
2023-04-24T20:12:57.469Z,6.10
2023-04-24T20:15:24.067Z,4.90
2023-04-24T20:17:50.698Z,8.50
2023-04-24T20:20:17.814Z,5.30
2023-04-24T20:22:44.452Z,6.60
2023-04-24T20:25:12.866Z,5.90
2023-04-24T20:27:40.417Z,7.20
2023-04-24T20:30:12.275Z,5.90
2023-04-24T20:32:40.218Z,5.50
2023-04-24T20:35:07.284Z,6.90
2023-04-24T20:37:35.713Z,8.80
2023-04-24T20:40:04.992Z,7.90
2023-04-24T20:42:32.262Z,12.90
2023-04-24T20:44:59.278Z,12.10
2023-04-24T20:47:26.257Z,14.10
2023-04-24T20:49:53.360Z,10.20
2023-04-24T20:52:20.326Z,8.50
2023-04-24T20:54:47.755Z,10.90
2023-04-24T20:57:15.235Z,8.80
2023-04-24T20:59:42.154Z,8.90
2023-04-24T21:02:08.868Z,8.70
2023-04-24T21:04:37.987Z,6.90
2023-04-24T21:07:05.624Z,7.10
2023-04-24T21:09:32.232Z,7.70
2023-04-24T21:11:58.780Z,8.60
2023-04-24T21:14:25.434Z,8.60
2023-04-24T21:16:52.090Z,6.20
2023-04-24T21:19:19.005Z,8.70
2023-04-24T21:21:45.782Z,8.60
2023-04-24T21:24:12.489Z,7.20
2023-04-24T21:26:39.114Z,6.90
2023-04-24T21:29:05.759Z,6.50
2023-04-24T21:31:32.588Z,6.00
2023-04-24T21:33:59.307Z,5.50
2023-04-24T21:36:26.253Z,8.80
2023-04-24T21:38:52.841Z,5.90
2023-04-24T21:41:19.795Z,5.90
2023-04-24T21:43:47.903Z,7.10
2023-04-24T21:46:16.525Z,6.10
2023-04-24T21:48:43.203Z,5.70
2023-04-24T21:51:09.993Z,7.70
2023-04-24T21:53:36.745Z,8.40
2023-04-24T21:56:03.521Z,6.00
2023-04-24T21:58:30.176Z,7.70
2023-04-24T22:00:57.129Z,6.20
2023-04-24T22:03:24.141Z,7.00
2023-04-24T22:05:50.989Z,5.90
2023-04-24T22:08:18.029Z,6.20
2023-04-24T22:10:44.698Z,5.90
2023-04-24T22:13:11.585Z,7.30
2023-04-24T22:15:38.140Z,9.50
2023-04-24T22:18:06.097Z,8.10
2023-04-24T22:20:33.662Z,5.60
2023-04-24T22:23:00.450Z,7.50
2023-04-24T22:25:27.113Z,6.60
2023-04-24T22:27:53.783Z,6.10
2023-04-24T22:30:20.429Z,10.90
2023-04-24T22:32:47.337Z,6.00
2023-04-24T22:35:13.975Z,6.00
2023-04-24T22:37:40.652Z,5.60
2023-04-24T22:40:07.878Z,5.50
2023-04-24T22:42:34.746Z,6.60
2023-04-24T22:45:01.480Z,7.80
2023-04-24T22:47:28.517Z,7.80
2023-04-24T22:49:57.163Z,7.00
2023-04-24T22:52:23.732Z,8.90
2023-04-24T22:54:51.192Z,5.20
2023-04-24T22:57:17.860Z,7.10
2023-04-24T22:59:44.588Z,6.40
2023-04-24T23:02:11.264Z,5.40
2023-04-24T23:04:38.087Z,6.10
2023-04-24T23:07:04.981Z,7.50
2023-04-24T23:09:31.857Z,9.00
2023-04-24T23:11:58.662Z,7.60
2023-04-24T23:14:25.308Z,6.80
2023-04-24T23:16:52.032Z,7.70
2023-04-24T23:19:18.728Z,6.60
2023-04-24T23:21:45.317Z,6.60
2023-04-24T23:24:11.977Z,5.70
2023-04-24T23:26:38.627Z,7.30
2023-04-24T23:29:05.409Z,6.90
2023-04-24T23:31:32.214Z,8.20
2023-04-24T23:33:59.725Z,5.30
2023-04-24T23:36:26.333Z,6.20
2023-04-24T23:38:52.913Z,7.80
2023-04-24T23:41:19.499Z,5.60
2023-04-24T23:43:46.205Z,5.60
2023-04-24T23:46:13.245Z,6.90
2023-04-24T23:48:40.073Z,5.80
2023-04-24T23:51:06.684Z,6.80
2023-04-24T23:53:33.471Z,6.50
2023-04-24T23:56:00.234Z,7.00
2023-04-24T23:58:26.861Z,5.50
